Terminal Aerodrome Forecast
Issued by NWS

Home | Current Version | Previous Version | Text Only | Print | Product List | Glossary On
Versions: 1 2 3 4 5 6 7 8 9 10 11 12 13 14 15 16 17 18 19 20
000
FTUS43 KLSX 231823 AAA
TAFCPS
TAF AMD
KCPS 231823Z 2318/2418 33014KT P6SM SCT035 BKN050
     FM232100 34015G23KT P6SM SCT040
     FM240000 34010G18KT P6SM SCT250
     FM240500 33006KT P6SM FEW250
     FM241700 32010KT P6SM FEW200=

USA.gov is the U.S. government's official web portal to all federal, state and local government web resources and services.